Time;durP1;ratioP1;P1;durP2;ratioP2;P2;SDS_P1;SDS_P2;PMS_P1;PMS_P2;Temp;Humidity;BMP_temperature;BMP_pressure;BME280_temperature;BME280_humidity;BME280_pressure;Samples;Min_cycle;Max_cycle;Signal;HPM_P1;HPM_P2
2022/11/22 00:00:19;;;;;;;4.28;1.38;;;6.70;99.90;;;-144.05;69.13;125687.94;4996634;28;20030;-80
2022/11/22 00:02:46;;;;;;;4.28;1.95;;;6.70;99.90;;;-144.05;69.63;125687.94;4996381;28;20056;-80
2022/11/22 00:05:12;;;;;;;7.75;1.98;;;6.70;99.90;;;-144.05;69.08;125687.94;5014350;28;20037;-82
2022/11/22 00:07:39;;;;;;;8.60;1.65;;;6.70;99.90;;;-144.05;69.81;125687.94;5013215;28;20052;-81
2022/11/22 00:10:10;;;;;;;4.07;1.35;;;6.70;99.90;;;-144.05;69.41;125687.94;5014376;28;20057;-82
2022/11/22 00:12:36;;;;;;;4.32;1.20;;;6.70;99.90;;;-144.05;68.76;125687.94;5021435;28;20034;-80
2022/11/22 00:15:04;;;;;;;2.28;1.30;;;6.70;99.90;;;-144.05;68.35;125687.94;5016044;28;20397;-80
2022/11/22 00:17:31;;;;;;;4.75;1.70;;;6.70;99.90;;;-144.05;68.93;125687.94;5015176;28;20025;-78
2022/11/22 00:19:56;;;;;;;3.80;0.93;;;6.70;99.90;;;-144.05;68.25;125687.94;5002335;28;20032;-79
2022/11/22 00:22:23;;;;;;;3.78;1.40;;;6.70;99.90;;;-144.05;68.60;125687.94;5020090;28;20105;-80
2022/11/22 00:24:51;;;;;;;4.88;1.40;;;6.70;99.90;;;-144.05;69.33;125687.94;5019509;28;20029;-80
2022/11/22 00:27:19;;;;;;;3.88;1.25;;;6.70;99.90;;;-144.05;69.53;125687.94;5019703;28;20060;-79
2022/11/22 00:29:45;;;;;;;3.63;1.38;;;6.70;99.90;;;-144.05;69.13;125687.94;5002303;28;20036;-79
2022/11/22 00:32:11;;;;;;;4.63;1.35;;;6.70;99.90;;;-144.05;68.51;125687.94;5020199;28;20052;-79
2022/11/22 00:34:37;;;;;;;2.88;1.00;;;6.70;99.90;;;-144.05;68.40;125687.94;5020076;28;20505;-80
2022/11/22 00:37:02;;;;;;;7.10;1.30;;;6.70;99.90;;;-144.05;68.13;125687.94;5020345;28;20068;-80
2022/11/22 00:39:28;;;;;;;3.03;1.58;;;6.70;99.90;;;-144.05;68.05;125687.94;5019987;28;20058;-81
2022/11/22 00:41:54;;;;;;;3.58;1.67;;;6.70;99.90;;;-144.05;68.52;125687.94;5019598;28;20052;-80
2022/11/22 00:44:20;;;;;;;4.82;1.17;;;6.70;99.90;;;-144.05;69.05;125687.94;5020331;28;20094;-80
2022/11/22 00:46:46;;;;;;;5.03;1.05;;;6.80;99.90;;;-144.05;69.26;125687.94;5020146;28;20040;-80
2022/11/22 00:49:11;;;;;;;2.47;1.00;;;6.70;99.90;;;-144.05;68.69;125687.94;5019491;28;20069;-78
2022/11/22 00:51:37;;;;;;;5.63;1.35;;;6.70;99.90;;;-144.05;69.18;125687.94;5020448;28;20103;-82
2022/11/22 00:54:04;;;;;;;4.95;1.50;;;6.70;99.90;;;-144.05;68.52;125687.94;5029007;28;20033;-79
2022/11/22 00:56:30;;;;;;;4.40;1.40;;;6.80;99.90;;;-144.05;69.67;125687.94;5040090;28;20033;-80
2022/11/22 00:58:57;;;;;;;2.83;0.95;;;6.70;99.90;;;-144.05;69.17;125687.94;5039953;28;20025;-78
2022/11/22 01:01:23;;;;;;;3.10;1.27;;;6.70;99.90;;;-144.05;68.71;125687.94;5013040;28;20026;-83
2022/11/22 01:03:48;;;;;;;2.88;1.10;;;6.70;99.90;;;-144.05;69.60;125687.94;5029566;28;20040;-82
2022/11/22 01:06:14;;;;;;;2.35;1.23;;;6.70;99.90;;;-144.05;69.43;125687.94;5009102;28;20084;-82
2022/11/22 01:08:40;;;;;;;1.83;0.95;;;6.70;99.90;;;-144.05;69.22;125687.94;5021500;28;20109;-81
2022/11/22 01:11:06;;;;;;;2.03;1.15;;;6.70;99.90;;;-144.05;68.98;125687.94;5020127;28;20121;-80
2022/11/22 01:13:33;;;;;;;2.90;1.20;;;6.70;99.90;;;-144.05;68.92;125687.94;5021973;28;20026;-82
2022/11/22 01:16:07;;;;;;;2.47;1.20;;;6.70;99.90;;;-144.05;69.31;125687.94;5020485;28;20025;-82
2022/11/22 01:18:34;;;;;;;5.68;1.30;;;6.70;99.90;;;-144.05;69.46;125687.94;5020008;28;20116;-80
2022/11/22 01:21:01;;;;;;;4.72;1.40;;;6.70;99.90;;;-144.05;69.70;125687.94;5019870;28;20137;-81
2022/11/22 01:23:27;;;;;;;3.67;1.42;;;6.80;99.90;;;-144.05;69.18;125687.94;5018940;28;20389;-80
2022/11/22 01:25:53;;;;;;;2.45;0.95;;;6.80;99.90;;;-144.05;69.95;125687.94;5019869;28;20065;-81
2022/11/22 01:28:19;;;;;;;4.15;1.17;;;6.80;99.90;;;-144.05;68.74;125687.94;5019975;28;20037;-82
2022/11/22 01:30:48;;;;;;;3.28;1.10;;;6.90;99.90;;;-144.05;68.69;125687.94;5015929;28;20033;-79
2022/11/22 01:33:14;;;;;;;3.05;1.25;;;6.90;99.90;;;-144.05;69.95;125687.94;5016779;28;20034;-82
2022/11/22 01:35:40;;;;;;;4.00;1.13;;;6.90;99.90;;;-144.05;69.74;125687.94;5016476;28;20382;-83
2022/11/22 01:38:06;;;;;;;3.17;1.20;;;6.90;99.90;;;-144.05;69.45;125687.94;5016731;28;20038;-83
2022/11/22 01:40:31;;;;;;;4.43;1.50;;;6.80;99.90;;;-144.05;70.03;125687.94;5015165;28;20490;-78
2022/11/22 01:43:00;;;;;;;3.13;1.30;;;6.90;99.90;;;-144.05;70.88;125687.94;4998426;28;20121;-80
2022/11/22 01:45:29;;;;;;;1.90;1.20;;;6.90;99.90;;;-144.05;71.37;125687.94;5016045;28;20117;-79
2022/11/22 01:48:46;;;;;;;4.25;1.08;;;6.90;99.90;;;-144.05;72.80;125687.94;5016122;28;20570;-77
2022/11/22 01:51:41;;;;;;;5.18;1.38;;;6.90;99.90;;;-144.05;73.28;125687.94;5016319;28;20433;-81
2022/11/22 01:54:21;;;;;;;6.47;1.30;;;6.80;99.90;;;-144.05;73.41;125687.94;4997996;28;20065;-82
2022/11/22 01:56:57;;;;;;;3.60;1.38;;;6.80;99.90;;;-144.05;73.65;125687.94;5014351;28;20026;-81
2022/11/22 01:59:31;;;;;;;4.55;1.58;;;6.80;99.90;;;-144.05;74.12;125687.94;5015312;28;20206;-82
2022/11/22 02:01:59;;;;;;;2.75;1.50;;;6.80;99.90;;;-144.05;74.02;125687.94;5015604;28;20038;-82
2022/11/22 02:04:31;;;;;;;5.95;1.63;;;6.80;99.90;;;-144.05;74.69;125687.94;5014544;28;20040;-83
2022/11/22 02:07:20;;;;;;;3.40;1.65;;;6.80;99.90;;;-144.05;74.84;125687.94;5015950;28;20034;-83
2022/11/22 02:09:51;;;;;;;5.80;2.08;;;6.70;99.90;;;-144.05;74.19;125687.94;5016220;28;20048;-80
2022/11/22 02:12:25;;;;;;;4.32;1.65;;;6.80;99.90;;;-144.05;74.44;125687.94;5015694;28;20065;-81
2022/11/22 02:14:52;;;;;;;5.07;1.45;;;6.80;99.90;;;-144.05;74.25;125687.94;5014760;28;20516;-81
2022/11/22 02:17:18;;;;;;;3.85;1.70;;;6.80;99.90;;;-144.05;74.76;125687.94;5016026;28;20045;-80
2022/11/22 02:19:49;;;;;;;3.55;1.83;;;6.70;99.90;;;-144.05;75.03;125687.94;5016126;28;20084;-82
2022/11/22 02:22:47;;;;;;;5.90;1.90;;;6.70;99.90;;;-144.05;74.80;125687.94;5015187;28;20033;-82
2022/11/22 02:25:41;;;;;;;6.50;1.90;;;6.70;99.90;;;-144.05;75.00;125687.94;4998393;28;20049;-82
2022/11/22 02:28:12;;;;;;;4.38;1.50;;;6.70;99.90;;;-144.05;74.78;125687.94;5015303;28;20134;-82
2022/11/22 02:30:40;;;;;;;4.07;1.70;;;6.70;99.90;;;-144.05;74.92;125687.94;5015451;28;20041;-81
2022/11/22 02:33:07;;;;;;;4.70;2.22;;;6.70;99.90;;;-144.05;74.81;125687.94;4997331;28;20026;-81
2022/11/22 02:35:33;;;;;;;5.20;1.92;;;6.80;99.90;;;-144.05;74.37;125687.94;4997709;28;20026;-81
2022/11/22 02:38:12;;;;;;;6.75;1.60;;;6.70;99.90;;;-144.05;74.29;125687.94;4997278;28;20041;-83
2022/11/22 02:41:11;;;;;;;6.30;1.73;;;6.80;99.90;;;-144.05;74.02;125687.94;4997025;28;20100;-83
2022/11/22 02:43:45;;;;;;;4.60;1.60;;;6.90;99.90;;;-144.05;74.24;125687.94;5014965;28;20450;-81
2022/11/22 02:46:19;;;;;;;5.40;1.73;;;6.90;99.90;;;-144.05;74.27;125687.94;5015070;28;20036;-79
2022/11/22 02:48:46;;;;;;;5.18;1.60;;;6.90;99.90;;;-144.05;74.19;125687.94;5014672;28;20025;-79
2022/11/22 02:51:18;;;;;;;6.97;1.77;;;6.90;99.90;;;-144.05;73.71;125687.94;5013059;28;20105;-82
2022/11/22 02:53:49;;;;;;;5.28;1.60;;;7.00;99.90;;;-144.05;74.18;125687.94;5014743;28;20030;-81
2022/11/22 02:56:16;;;;;;;7.30;1.58;;;7.00;99.90;;;-144.05;74.27;125687.94;4997636;28;20397;-79
2022/11/22 02:58:43;;;;;;;4.90;1.67;;;7.00;99.90;;;-144.05;73.65;125687.94;5014852;28;20092;-80
2022/11/22 03:01:11;;;;;;;5.85;1.98;;;7.10;99.90;;;-144.05;73.50;125687.94;5014815;28;20045;-78
2022/11/22 03:03:37;;;;;;;5.50;1.73;;;7.00;99.90;;;-144.05;73.39;125687.94;5014872;28;20033;-80
2022/11/22 03:06:03;;;;;;;4.57;1.58;;;7.00;99.90;;;-144.05;73.58;125687.94;5013297;28;20489;-81
2022/11/22 03:08:29;;;;;;;5.85;1.83;;;7.00;99.90;;;-144.05;74.06;125687.94;4996721;28;20512;-80
2022/11/22 03:10:59;;;;;;;8.98;2.13;;;6.90;99.90;;;-144.05;74.26;125687.94;5014867;28;20094;-78
2022/11/22 03:13:25;;;;;;;8.18;1.85;;;6.90;99.90;;;-144.05;73.75;125687.94;5012781;28;20040;-82
2022/11/22 03:15:51;;;;;;;5.95;1.90;;;6.90;99.90;;;-144.05;74.00;125687.94;5014036;28;20022;-81
2022/11/22 03:18:17;;;;;;;6.00;2.28;;;6.90;99.90;;;-144.05;73.95;125687.94;4996722;28;20025;-82
2022/11/22 03:20:43;;;;;;;8.40;2.08;;;6.80;99.90;;;-144.05;74.04;125687.94;5014131;28;20018;-82
2022/11/22 03:23:09;;;;;;;5.32;1.77;;;6.80;99.90;;;-144.05;74.30;125687.94;4996249;28;20026;-83
2022/11/22 03:25:39;;;;;;;7.05;2.17;;;6.80;99.90;;;-144.05;73.94;125687.94;5014446;28;20029;-81
2022/11/22 03:28:05;;;;;;;8.63;2.47;;;6.80;99.90;;;-144.05;74.10;125687.94;5013897;28;20064;-81
2022/11/22 03:30:31;;;;;;;6.03;1.67;;;6.80;99.90;;;-144.05;74.10;125687.94;4996384;28;20029;-80
2022/11/22 03:32:57;;;;;;;7.25;2.17;;;6.80;99.90;;;-144.05;74.12;125687.94;5014084;28;20092;-82
2022/11/22 03:35:23;;;;;;;4.68;1.80;;;6.80;99.90;;;-144.05;74.40;125687.94;5013952;28;20030;-80
2022/11/22 03:37:49;;;;;;;5.05;1.77;;;6.90;99.90;;;-144.05;74.22;125687.94;5014102;28;20044;-80
2022/11/22 03:40:15;;;;;;;9.75;1.92;;;6.90;99.90;;;-144.05;74.30;125687.94;5012390;28;20022;-81
2022/11/22 03:42:40;;;;;;;7.05;1.55;;;6.90;99.90;;;-144.05;74.09;125687.94;5012320;28;20379;-81
2022/11/22 03:45:07;;;;;;;8.93;2.53;;;6.90;99.90;;;-144.05;74.19;125687.94;5013416;28;20040;-80
2022/11/22 03:47:33;;;;;;;6.50;2.10;;;6.90;99.90;;;-144.05;73.72;125687.94;5013646;28;20034;-82
2022/11/22 03:49:58;;;;;;;7.55;1.85;;;6.90;99.90;;;-144.05;74.02;125687.94;5013634;28;20037;-80
2022/11/22 03:52:24;;;;;;;8.77;2.17;;;6.80;99.90;;;-144.05;74.60;125687.94;5011558;28;20485;-82
2022/11/22 03:54:50;;;;;;;14.73;2.40;;;6.90;99.90;;;-144.05;74.21;125687.94;5032410;23;20065;-76
2022/11/22 03:57:16;;;;;;;7.55;2.03;;;6.90;99.90;;;-144.05;74.04;125687.94;4996177;28;20423;-76
2022/11/22 03:59:42;;;;;;;12.02;2.60;;;6.90;99.90;;;-144.05;74.39;125687.94;5013921;28;20080;-76
2022/11/22 04:02:08;;;;;;;8.90;2.42;;;6.80;99.90;;;-144.05;74.32;125687.94;5013453;28;20029;-76
2022/11/22 04:04:33;;;;;;;10.90;2.22;;;6.80;99.90;;;-144.05;74.43;125687.94;5013160;28;20113;-77
2022/11/22 04:06:59;;;;;;;8.50;2.78;;;6.80;99.90;;;-144.05;74.42;125687.94;5012965;28;20095;-76
2022/11/22 04:09:25;;;;;;;12.93;2.35;;;6.80;99.90;;;-144.05;74.17;125687.94;5013073;28;20029;-75
2022/11/22 04:11:51;;;;;;;9.95;2.13;;;6.80;99.90;;;-144.05;74.40;125687.94;5012602;28;20485;-74
2022/11/22 04:17:01;;;;;;;10.95;2.63;;;6.90;99.90;;;-144.05;73.92;125687.94;5013272;28;20080;-76
2022/11/22 04:19:27;;;;;;;5.72;2.45;;;6.90;99.90;;;-144.05;73.55;125687.94;5013193;28;20026;-77
2022/11/22 04:21:53;;;;;;;8.23;2.00;;;6.90;99.90;;;-144.05;73.58;125687.94;5011778;28;20037;-77
2022/11/22 04:27:23;;;;;;;6.35;2.35;;;6.90;99.90;;;-144.05;74.02;125687.94;4957021;29;20472;-75
2022/11/22 04:29:49;;;;;;;7.65;2.38;;;6.80;99.90;;;-144.05;73.89;125687.94;4953188;29;20039;-76
2022/11/22 04:34:59;;;;;;;15.23;2.42;;;6.80;99.90;;;-144.05;74.07;125687.94;5017988;28;20049;-75
2022/11/22 04:37:25;;;;;;;10.02;2.47;;;6.80;99.90;;;-144.05;73.82;125687.94;4998217;28;20034;-76
2022/11/22 04:39:51;;;;;;;5.93;2.33;;;6.80;99.90;;;-144.05;73.72;125687.94;5015343;28;20065;-76
2022/11/22 04:45:01;;;;;;;6.75;2.03;;;6.70;99.90;;;-144.05;73.53;125687.94;5014485;28;20516;-76
2022/11/22 04:53:17;;;;;;;10.77;3.13;;;6.50;99.90;;;-144.05;73.96;125687.94;5008595;28;20077;-76
2022/11/22 04:55:46;;;;;;;8.27;1.95;;;6.30;99.90;;;-144.05;74.17;125687.94;5012326;28;20045;-77
2022/11/22 04:58:12;;;;;;;11.65;2.17;;;6.30;99.90;;;-144.05;74.40;125687.94;4996602;28;20117;-77
2022/11/22 05:00:39;;;;;;;10.20;1.95;;;6.20;99.90;;;-144.05;74.02;125687.94;5014568;28;20084;-74
2022/11/22 05:03:06;;;;;;;11.27;2.30;;;6.10;99.90;;;-144.05;75.47;125687.94;5017541;28;20094;-76
2022/11/22 05:05:42;;;;;;;9.82;2.50;;;6.10;99.90;;;-144.05;75.17;125687.94;5029731;28;20114;-78
2022/11/22 05:08:09;;;;;;;9.05;2.97;;;6.10;99.90;;;-144.05;75.60;125687.94;5020345;28;20074;-76
2022/11/22 05:13:26;;;;;;;7.70;2.03;;;6.00;99.90;;;-144.05;75.67;125687.94;5017292;28;20351;-77
2022/11/22 05:15:54;;;;;;;8.68;2.17;;;6.00;99.90;;;-144.05;75.87;125687.94;5017427;28;20038;-78
2022/11/22 05:18:22;;;;;;;15.73;2.33;;;6.00;99.90;;;-144.05;75.77;125687.94;5001547;28;20022;-77
2022/11/22 05:20:49;;;;;;;12.88;2.33;;;6.00;99.90;;;-144.05;75.51;125687.94;4999384;28;20041;-76
2022/11/22 05:26:01;;;;;;;7.60;1.55;;;5.90;99.90;;;-144.05;76.02;125687.94;5024325;28;20044;-76
2022/11/22 05:28:33;;;;;;;14.48;2.42;;;5.90;99.90;;;-144.05;75.74;125687.94;5028922;28;20053;-76
2022/11/22 05:31:08;;;;;;;12.07;2.25;;;5.90;99.90;;;-144.05;75.29;125687.94;5030978;28;20042;-77
2022/11/22 05:33:38;;;;;;;9.80;2.40;;;5.80;99.90;;;-144.05;76.38;125687.94;5030471;28;20033;-75
2022/11/22 05:36:06;;;;;;;13.02;2.03;;;5.70;99.90;;;-144.05;76.08;125687.94;5025903;28;20533;-77
2022/11/22 05:38:35;;;;;;;10.15;2.30;;;5.70;99.90;;;-144.05;76.88;125687.94;5032479;28;20022;-74
2022/11/22 05:41:08;;;;;;;6.05;1.60;;;5.80;99.90;;;-144.05;76.65;125687.94;5036173;28;20045;-76
2022/11/22 05:43:35;;;;;;;12.90;2.40;;;5.80;99.90;;;-144.05;76.40;125687.94;5017052;28;20029;-76
2022/11/22 05:46:20;;;;;;;11.77;1.83;;;5.80;99.90;;;-144.05;76.46;125687.94;5022994;28;20036;-77
2022/11/22 05:48:47;;;;;;;9.20;2.08;;;5.80;99.90;;;-144.05;75.99;125687.94;5019386;28;20122;-76
2022/11/22 05:51:18;;;;;;;9.35;2.10;;;5.90;99.90;;;-144.05;76.21;125687.94;5019915;28;20030;-76
2022/11/22 05:53:45;;;;;;;8.82;2.30;;;5.80;99.90;;;-144.05;75.97;125687.94;5022652;28;20033;-75
2022/11/22 05:56:22;;;;;;;10.95;2.17;;;5.80;99.90;;;-144.05;75.93;125687.94;5016227;28;20026;-77
2022/11/22 05:58:50;;;;;;;10.13;2.10;;;5.80;99.90;;;-144.05;75.63;125687.94;5015827;28;20030;-78
2022/11/22 06:01:23;;;;;;;7.45;1.63;;;5.70;99.90;;;-144.05;75.54;125687.94;5015650;28;20018;-77
2022/11/22 06:03:50;;;;;;;10.27;1.95;;;5.60;99.90;;;-144.05;76.49;125687.94;5018683;28;20034;-75
2022/11/22 06:06:17;;;;;;;5.88;2.05;;;5.50;99.90;;;-144.05;76.79;125687.94;5019312;28;20089;-75
2022/11/22 06:08:46;;;;;;;8.13;2.00;;;5.60;99.90;;;-144.05;77.02;125687.94;5001528;28;20172;-77
2022/11/22 06:11:23;;;;;;;11.60;2.50;;;5.60;99.90;;;-144.05;77.13;125687.94;5000235;28;20508;-75
2022/11/22 06:13:57;;;;;;;11.13;1.88;;;5.60;99.90;;;-144.05;77.19;125687.94;5016058;28;20512;-75
2022/11/22 06:16:24;;;;;;;7.70;1.60;;;5.60;99.90;;;-144.05;76.79;125687.94;5015975;28;20022;-74
2022/11/22 06:18:51;;;;;;;9.63;2.17;;;5.60;99.90;;;-144.05;76.90;125687.94;5017833;28;20033;-75
2022/11/22 06:21:24;;;;;;;11.40;2.10;;;5.60;99.90;;;-144.05;76.27;125687.94;5016812;28;20025;-76
2022/11/22 06:23:54;;;;;;;7.80;1.63;;;5.60;99.90;;;-144.05;76.16;125687.94;5016940;28;20029;-75
2022/11/22 06:26:23;;;;;;;8.85;1.92;;;5.60;99.90;;;-144.05;76.32;125687.94;4999290;28;20160;-76
2022/11/22 06:28:49;;;;;;;8.65;1.98;;;5.60;99.90;;;-144.05;76.67;125687.94;5015431;28;20417;-76
2022/11/22 06:31:24;;;;;;;7.93;1.70;;;5.60;99.90;;;-144.05;76.78;125687.94;4998951;28;20026;-75
2022/11/22 06:33:53;;;;;;;9.30;2.45;;;5.60;99.90;;;-144.05;76.20;125687.94;5016766;28;20122;-76
2022/11/22 06:36:27;;;;;;;12.25;2.85;;;5.60;99.90;;;-144.05;76.10;125687.94;5016310;28;20145;-77
2022/11/22 06:38:53;;;;;;;13.25;2.40;;;5.60;99.90;;;-144.05;75.80;125687.94;5017133;28;20041;-74
2022/11/22 06:41:24;;;;;;;10.40;2.88;;;5.60;99.90;;;-144.05;75.29;125687.94;5015703;28;20061;-74
2022/11/22 06:43:53;;;;;;;9.27;2.10;;;5.60;99.90;;;-144.05;74.68;125687.94;4999262;28;20030;-75
2022/11/22 06:46:23;;;;;;;7.22;1.83;;;5.60;99.90;;;-144.05;74.81;125687.94;5016789;28;20030;-76
2022/11/22 06:48:50;;;;;;;7.03;1.70;;;5.60;99.90;;;-144.05;74.53;125687.94;5015834;28;20030;-78
2022/11/22 06:51:30;;;;;;;7.43;2.28;;;5.60;99.90;;;-144.05;74.63;125687.94;5022825;28;20037;-77
2022/11/22 06:53:58;;;;;;;9.48;2.42;;;5.50;99.90;;;-144.05;74.32;125687.94;5015922;28;20551;-76
2022/11/22 06:56:34;;;;;;;8.88;1.70;;;5.50;99.90;;;-144.05;74.39;125687.94;5016836;28;20034;-75
2022/11/22 06:59:05;;;;;;;9.10;2.42;;;5.40;99.90;;;-144.05;74.83;125687.94;5017990;28;20040;-76
2022/11/22 07:01:33;;;;;;;10.38;2.25;;;5.50;99.90;;;-144.05;74.14;125687.94;4999743;28;20070;-75
2022/11/22 07:04:02;;;;;;;12.68;2.55;;;5.50;99.90;;;-144.05;74.36;125687.94;5019390;28;20049;-77
2022/11/22 07:06:37;;;;;;;11.35;2.50;;;5.60;99.90;;;-144.05;73.84;125687.94;5019358;28;20087;-74
2022/11/22 07:09:08;;;;;;;10.40;2.20;;;5.50;99.90;;;-144.05;73.87;125687.94;5015386;28;20056;-76
2022/11/22 07:11:35;;;;;;;15.40;2.85;;;5.50;99.90;;;-144.05;73.92;125687.94;5016500;28;20034;-77
2022/11/22 07:14:04;;;;;;;14.32;2.78;;;5.60;99.90;;;-144.05;73.85;125687.94;5016479;28;20053;-74
2022/11/22 07:16:30;;;;;;;13.10;2.88;;;5.60;99.90;;;-144.05;73.74;125687.94;5015462;28;20030;-75
2022/11/22 07:19:01;;;;;;;12.07;1.95;;;5.60;99.90;;;-144.05;73.17;125687.94;5015593;28;20057;-75
2022/11/22 07:21:27;;;;;;;9.55;2.22;;;5.60;99.90;;;-144.05;74.02;125687.94;4998782;28;20029;-76
2022/11/22 07:23:54;;;;;;;6.00;1.80;;;5.60;99.90;;;-144.05;73.40;125687.94;5017333;28;20036;-76
2022/11/22 07:26:24;;;;;;;9.98;2.05;;;5.50;99.90;;;-144.05;73.27;125687.94;4998702;28;20025;-73
2022/11/22 07:28:50;;;;;;;9.77;2.55;;;5.50;99.90;;;-144.05;73.18;125687.94;5016123;28;20053;-75
2022/11/22 07:31:17;;;;;;;12.32;2.25;;;5.50;99.90;;;-144.05;72.92;125687.94;5024780;28;20034;-76
2022/11/22 07:33:44;;;;;;;14.55;3.13;;;5.60;99.90;;;-144.05;72.42;125687.94;5029973;28;20030;-76
2022/11/22 07:36:21;;;;;;;15.55;2.05;;;5.60;99.90;;;-144.05;72.25;125687.94;4998908;28;20022;-77
2022/11/22 07:38:48;;;;;;;10.10;2.33;;;5.60;99.90;;;-144.05;71.99;125687.94;5014065;28;20034;-77
2022/11/22 07:41:17;;;;;;;7.95;1.73;;;5.60;99.90;;;-144.05;71.80;125687.94;4997867;28;20029;-76
2022/11/22 07:43:44;;;;;;;9.23;2.05;;;5.70;99.90;;;-144.05;71.97;125687.94;4998076;28;20378;-76
2022/11/22 07:46:30;;;;;;;11.07;2.15;;;5.70;99.90;;;-144.05;71.09;125687.94;5015115;28;20559;-75
2022/11/22 07:48:57;;;;;;;15.73;2.30;;;5.70;99.90;;;-144.05;70.75;125687.94;5015442;28;20074;-77
2022/11/22 07:51:24;;;;;;;6.30;2.17;;;5.80;99.90;;;-144.05;70.37;125687.94;5015267;28;20449;-73
2022/11/22 07:53:50;;;;;;;9.23;1.85;;;5.80;99.90;;;-144.05;69.87;125687.94;5013502;28;20037;-76
2022/11/22 07:56:16;;;;;;;9.15;2.03;;;6.00;99.90;;;-144.05;69.47;125687.94;5014683;28;20444;-76
2022/11/22 07:58:43;;;;;;;19.48;2.65;;;6.10;99.90;;;-144.05;68.78;125687.94;5014226;28;20026;-74
2022/11/22 08:01:16;;;;;;;9.15;2.45;;;6.20;99.90;;;-144.05;68.06;125687.94;5014752;28;20030;-76
2022/11/22 08:03:44;;;;;;;11.07;1.98;;;6.30;99.90;;;-144.05;67.28;125687.94;5013682;28;20041;-75
2022/11/22 08:06:12;;;;;;;10.63;1.88;;;6.40;99.90;;;-144.05;66.45;125687.94;5014156;28;20108;-75
2022/11/22 08:08:39;;;;;;;7.18;1.88;;;6.60;99.90;;;-144.05;65.70;125687.94;5014708;28;20053;-75
2022/11/22 08:11:06;;;;;;;11.52;2.17;;;6.80;99.90;;;-144.05;65.09;125687.94;5014153;28;20218;-74
2022/11/22 08:13:34;;;;;;;7.63;2.63;;;6.90;99.90;;;-144.05;64.41;125687.94;5014417;28;20103;-77
2022/11/22 08:16:13;;;;;;;6.57;1.77;;;6.90;99.90;;;-144.05;64.32;125687.94;5014109;28;20113;-76
2022/11/22 08:18:45;;;;;;;11.43;2.28;;;6.90;99.90;;;-144.05;64.44;125687.94;4996559;28;20108;-77
2022/11/22 08:21:16;;;;;;;14.98;2.40;;;6.80;99.90;;;-144.05;65.17;125687.94;5013737;28;20080;-76
2022/11/22 08:23:45;;;;;;;12.20;2.33;;;6.80;99.90;;;-144.05;65.12;125687.94;5014405;28;20033;-75
2022/11/22 08:26:15;;;;;;;8.32;2.10;;;6.70;99.90;;;-144.05;65.38;125687.94;5013548;28;20033;-75
2022/11/22 08:28:43;;;;;;;9.27;2.33;;;6.70;99.90;;;-144.05;65.31;125687.94;5012037;28;20059;-76
2022/11/22 08:31:20;;;;;;;10.63;2.00;;;6.70;99.90;;;-144.05;65.22;125687.94;5014502;28;20397;-76
2022/11/22 08:33:50;;;;;;;8.77;1.70;;;6.80;99.90;;;-144.05;64.81;125687.94;4996978;28;20031;-76
2022/11/22 08:36:16;;;;;;;9.65;2.00;;;6.90;99.90;;;-144.05;64.46;125687.94;5014637;28;20030;-75
2022/11/22 08:38:42;;;;;;;12.13;1.77;;;7.00;99.90;;;-144.05;63.70;125687.94;5015478;28;20089;-77
2022/11/22 08:41:10;;;;;;;12.18;2.05;;;7.20;99.90;;;-144.05;63.35;125687.94;5017082;28;20052;-77
2022/11/22 08:43:37;;;;;;;14.23;3.05;;;7.40;99.90;;;-144.05;62.56;125687.94;5019695;28;20048;-75
2022/11/22 08:46:04;;;;;;;11.02;1.55;;;7.60;99.90;;;-144.05;61.69;125687.94;5001067;28;20057;-76
2022/11/22 08:48:35;;;;;;;10.13;1.95;;;7.80;99.90;;;-144.05;60.35;125687.94;5018407;28;20044;-76
2022/11/22 08:51:06;;;;;;;6.50;1.92;;;8.00;99.90;;;-144.05;60.55;125687.94;5018713;28;20026;-74
2022/11/22 08:53:41;;;;;;;10.02;1.70;;;8.10;99.90;;;-144.05;59.51;125687.94;5020760;28;20520;-75
2022/11/22 08:56:12;;;;;;;7.80;1.80;;;8.30;99.90;;;-144.05;58.37;125687.94;5002156;28;20489;-76
2022/11/22 08:58:39;;;;;;;10.00;1.63;;;8.40;99.90;;;-144.05;59.08;125687.94;5018052;28;20037;-77
2022/11/22 09:01:16;;;;;;;7.00;1.23;;;8.40;99.90;;;-144.05;58.16;125687.94;5000265;28;20034;-76
2022/11/22 09:03:44;;;;;;;7.45;1.80;;;8.50;99.90;;;-144.05;58.83;125687.94;5017133;28;20030;-76
2022/11/22 09:06:16;;;;;;;7.93;1.58;;;8.60;99.90;;;-144.05;57.31;125687.94;5017834;28;20458;-75
2022/11/22 09:08:42;;;;;;;7.75;1.63;;;8.70;99.90;;;-144.05;57.46;125687.94;5017956;28;20049;-76
2022/11/22 09:11:16;;;;;;;5.50;1.30;;;8.70;99.90;;;-144.05;57.08;125687.94;5017949;28;20513;-77
2022/11/22 09:13:43;;;;;;;8.98;1.80;;;8.80;99.90;;;-144.05;57.05;125687.94;5018223;28;20060;-75
2022/11/22 09:16:17;;;;;;;10.20;2.17;;;8.90;99.90;;;-144.05;55.72;125687.94;5016668;28;20034;-76
2022/11/22 09:18:45;;;;;;;9.18;1.73;;;9.00;99.90;;;-144.05;56.30;125687.94;5017567;28;20026;-77
2022/11/22 09:21:17;;;;;;;8.57;1.60;;;8.90;99.90;;;-144.05;55.13;125687.94;5017278;28;20474;-76
2022/11/22 09:23:49;;;;;;;7.70;1.38;;;9.00;99.90;;;-144.05;55.79;125687.94;5018225;28;20469;-77
2022/11/22 09:26:21;;;;;;;8.10;1.85;;;8.90;99.90;;;-144.05;55.72;125687.94;5016224;28;20042;-76
2022/11/22 09:28:47;;;;;;;5.60;1.25;;;8.90;99.90;;;-144.05;56.37;125687.94;5017407;28;20093;-76
2022/11/22 09:31:22;;;;;;;6.63;1.35;;;8.80;99.90;;;-144.05;55.11;125687.94;5015934;28;20513;-77
2022/11/22 09:33:49;;;;;;;4.57;1.48;;;8.90;99.90;;;-144.05;54.99;125687.94;5015862;28;20137;-77
2022/11/22 09:36:25;;;;;;;5.78;1.60;;;9.00;99.90;;;-144.05;55.50;125687.94;5017128;28;20117;-76
2022/11/22 09:38:51;;;;;;;9.90;1.92;;;9.10;99.90;;;-144.05;55.25;125687.94;5017308;28;20034;-77
2022/11/22 09:42:14;;;;;;;11.10;2.03;;;9.10;99.90;;;-144.05;55.53;125687.94;5017311;28;20520;-75
2022/11/22 09:45:26;;;;;;;3.65;1.50;;;9.10;99.90;;;-144.05;55.06;125687.94;5016173;28;20022;-75
2022/11/22 09:48:49;;;;;;;6.13;1.42;;;9.20;99.90;;;-144.05;54.75;125687.94;5017249;28;20029;-76
2022/11/22 09:51:25;;;;;;;8.57;1.65;;;9.30;99.90;;;-144.05;53.91;125687.94;5015234;28;20036;-76
2022/11/22 09:54:08;;;;;;;6.05;1.30;;;9.30;99.90;;;-144.05;54.08;125687.94;5021466;23;20038;-78
2022/11/22 09:56:37;;;;;;;4.55;1.20;;;9.30;99.90;;;-144.05;54.59;125687.94;5017201;28;20037;-75
2022/11/22 09:59:26;;;;;;;5.43;1.30;;;9.30;99.90;;;-144.05;54.05;125687.94;5016532;28;20173;-78
2022/11/22 10:02:36;;;;;;;8.10;1.67;;;9.40;99.90;;;-144.05;53.52;125687.94;5014340;28;20022;-75
2022/11/22 10:05:18;;;;;;;7.05;1.80;;;9.60;99.90;;;-144.05;53.08;125687.94;5015896;28;20087;-77
2022/11/22 10:07:59;;;;;;;7.78;1.35;;;9.80;99.90;;;-144.05;54.15;125687.94;5016392;28;20037;-78
2022/11/22 10:10:41;;;;;;;8.20;1.52;;;9.80;99.90;;;-144.05;53.71;125687.94;5015422;28;20037;-75
2022/11/22 10:13:25;;;;;;;7.72;1.45;;;9.80;99.90;;;-144.05;54.01;125687.94;5015836;28;20539;-76
2022/11/22 10:16:15;;;;;;;7.88;1.73;;;9.90;99.90;;;-144.05;53.94;125687.94;5015693;28;20068;-77
2022/11/22 10:18:55;;;;;;;6.63;1.60;;;9.80;99.90;;;-144.05;53.45;125687.94;5015824;28;20091;-75
2022/11/22 10:21:21;;;;;;;5.10;1.27;;;9.90;99.90;;;-144.05;53.61;125687.94;5015718;28;20045;-77
2022/11/22 10:23:47;;;;;;;9.65;2.13;;;9.80;99.90;;;-144.05;54.08;125687.94;5014929;28;20041;-76
2022/11/22 10:26:33;;;;;;;5.95;1.50;;;9.80;99.90;;;-144.05;53.29;125687.94;5015015;28;20505;-77
2022/11/22 10:29:22;;;;;;;6.73;1.43;;;9.60;99.90;;;-144.05;54.05;125687.94;5015062;28;20033;-78
2022/11/22 10:32:22;;;;;;;8.95;1.98;;;9.30;99.90;;;-144.05;54.90;125687.94;5014413;28;20093;-75
2022/11/22 10:35:20;;;;;;;6.20;1.35;;;9.10;99.90;;;-144.05;54.03;125687.94;5015398;28;20058;-78
2022/11/22 10:38:22;;;;;;;4.93;1.25;;;9.20;99.90;;;-144.05;54.32;125687.94;5014222;28;20022;-78
2022/11/22 10:41:28;;;;;;;7.88;1.10;;;9.00;99.90;;;-144.05;55.04;125687.94;5015366;28;20392;-74
2022/11/22 10:44:24;;;;;;;7.32;1.42;;;8.80;99.90;;;-144.05;55.71;125687.94;5015094;28;20545;-78